< < Back
Terminal Aerodrome Forecast


Current Version              Previous Versions:   1  2  3  4  5  6  7  8  9  

Terminal Aerodrome Forecast

797
FTUS42 KILM 282320
TAFILM
TAF
KILM 282320Z 2900/2924 VRB04KT P6SM FEW025
     FM291300 08006KT P6SM SCT015 SCT060=



Latest METAR

202
SAUS70 KWBC 290800 RRO
MTRILM
METAR KILM 290753Z AUTO 03003KT 10SM CLR 17/16 A3019 RMK AO2 SLP223
T01670156


USA.gov is the U.S. government's official web portal to all federal, state and local government web resources and services.